Time;durP1;ratioP1;P1;durP2;ratioP2;P2;SDS_P1;SDS_P2;PMS_P1;PMS_P2;Temp;Humidity;BMP_temperature;BMP_pressure;BME280_temperature;BME280_humidity;BME280_pressure;Samples;Min_cycle;Max_cycle;Signal;HPM_P1;HPM_P2
2022/03/21 00:02:12;;;;;;;142.40;85.93;;;0.50;75.20;;;;;;4974862;28;20031;-74
2022/03/21 00:04:44;;;;;;;151.40;85.05;;;0.50;75.20;;;;;;4940786;28;20039;-72
2022/03/21 00:07:13;;;;;;;140.50;80.00;;;0.50;75.30;;;;;;4956409;28;20038;-73
2022/03/21 00:09:38;;;;;;;141.38;80.75;;;0.50;75.40;;;;;;4956262;28;20371;-71
2022/03/21 00:12:05;;;;;;;146.25;86.07;;;0.60;75.40;;;;;;4957325;28;20054;-72
2022/03/21 00:14:31;;;;;;;143.88;87.93;;;0.60;75.30;;;;;;4954467;28;20038;-72
2022/03/21 00:16:59;;;;;;;137.45;83.88;;;0.60;75.30;;;;;;4954569;28;20102;-73
2022/03/21 00:19:26;;;;;;;138.23;80.80;;;0.60;75.40;;;;;;4955152;28;20031;-73
2022/03/21 00:21:52;;;;;;;131.77;76.28;;;0.60;75.30;;;;;;4954558;28;20078;-74
2022/03/21 00:27:47;;;;;;;117.55;67.55;;;0.60;75.30;;;;;;4952750;28;20081;-71
2022/03/21 00:30:38;;;;;;;122.45;65.72;;;0.60;75.60;;;;;;4953309;28;20081;-67
2022/03/21 00:33:17;;;;;;;;;;;0.50;75.70;;;;;;4951451;28;20039;-71
2022/03/21 00:36:04;;;;;;;82.93;51.88;;;0.50;75.80;;;;;;4968236;28;19916;-71
2022/03/21 00:38:41;;;;;;;86.70;48.33;;;0.50;76.00;;;;;;4951109;28;20070;-72
2022/03/21 00:41:34;;;;;;;77.35;47.13;;;0.40;76.40;;;;;;4953604;28;20035;-71
2022/03/21 00:44:30;;;;;;;78.10;44.88;;;0.40;76.40;;;;;;4935711;28;20027;-72
2022/03/21 00:47:14;;;;;;;76.40;45.20;;;0.40;76.60;;;;;;4964924;28;20039;-72
2022/03/21 00:49:55;;;;;;;77.10;46.78;;;0.40;76.90;;;;;;4974046;28;20062;-71
2022/03/21 00:52:23;;;;;;;88.82;49.22;;;0.20;76.30;;;;;;4968396;28;20030;-72
2022/03/21 00:54:49;;;;;;;82.05;49.22;;;-0.10;77.00;;;;;;4969149;28;20035;-71
2022/03/21 00:57:15;;;;;;;105.45;60.67;;;0.00;77.50;;;;;;4967849;28;20039;-70
2022/03/21 01:00:15;;;;;;;108.18;60.95;;;-0.10;77.70;;;;;;4967802;28;20154;-72
2022/03/21 01:03:02;;;;;;;101.97;60.15;;;0.00;77.80;;;;;;4952592;28;20122;-71
2022/03/21 01:05:39;;;;;;;105.95;64.47;;;0.10;77.50;;;;;;4966359;28;20057;-69
2022/03/21 01:08:06;;;;;;;113.13;65.78;;;0.20;77.10;;;;;;4967033;28;20455;-72
2022/03/21 01:10:44;;;;;;;102.53;59.63;;;0.30;77.10;;;;;;4966874;28;20058;-72
2022/03/21 01:13:35;;;;;;;95.25;54.10;;;0.40;77.20;;;;;;4967411;28;20062;-72
2022/03/21 01:16:08;;;;;;;98.47;53.38;;;0.30;76.70;;;;;;4965793;28;20035;-72
2022/03/21 01:18:51;;;;;;;88.80;52.85;;;0.40;76.80;;;;;;4967278;28;20121;-73
2022/03/21 01:21:28;;;;;;;86.35;50.85;;;0.30;77.10;;;;;;4965002;28;20046;-72
2022/03/21 01:23:54;;;;;;;91.03;52.85;;;0.30;77.50;;;;;;4951893;28;21741;-71
2022/03/21 01:26:28;;;;;;;98.25;56.70;;;0.30;78.20;;;;;;4966692;28;20042;-71
2022/03/21 01:28:59;;;;;;;101.38;58.60;;;0.30;77.40;;;;;;4965941;28;20038;-70
2022/03/21 01:31:25;;;;;;;112.82;61.53;;;0.30;77.30;;;;;;4966952;28;20460;-72
2022/03/21 01:34:16;;;;;;;183.68;92.75;;;0.20;77.50;;;;;;4966246;28;20058;-71
2022/03/21 01:36:56;;;;;;;196.93;102.25;;;0.20;77.50;;;;;;4966698;28;20039;-72
2022/03/21 01:39:35;;;;;;;139.43;76.30;;;0.20;78.00;;;;;;4948728;28;20038;-72
2022/03/21 01:42:18;;;;;;;154.05;81.57;;;0.10;78.20;;;;;;4966541;28;20039;-71
2022/03/21 01:45:20;;;;;;;142.98;76.63;;;0.10;78.60;;;;;;4973290;28;20031;-72
2022/03/21 01:47:49;;;;;;;126.53;70.97;;;0.10;78.60;;;;;;4967299;28;20055;-71
2022/03/21 01:50:17;;;;;;;113.25;66.88;;;0.10;78.60;;;;;;4966736;28;20077;-72
2022/03/21 01:52:44;;;;;;;104.50;59.00;;;0.00;79.00;;;;;;4967082;28;20035;-71
2022/03/21 01:58:08;;;;;;;91.10;54.67;;;-0.10;79.60;;;;;;4967782;28;20030;-72
2022/03/21 02:00:34;;;;;;;89.43;53.58;;;-0.30;79.90;;;;;;4970838;28;20093;-72
2022/03/21 02:03:00;;;;;;;88.35;50.63;;;-0.30;80.30;;;;;;4972797;28;20050;-72
2022/03/21 02:05:47;;;;;;;83.28;47.72;;;-0.30;80.70;;;;;;4973264;28;20118;-71
2022/03/21 02:08:19;;;;;;;75.22;44.92;;;-0.50;81.20;;;;;;4955737;28;20046;-71
2022/03/21 02:10:46;;;;;;;64.55;41.35;;;-0.60;81.70;;;;;;4972966;28;20492;-71
2022/03/21 02:13:18;;;;;;;64.40;42.25;;;-0.60;82.10;;;;;;4973040;28;20035;-72
2022/03/21 02:15:44;;;;;;;71.85;36.80;;;-0.70;82.60;;;;;;4970182;28;20034;-72
2022/03/21 02:18:11;;;;;;;66.07;37.75;;;-0.60;82.90;;;;;;4972754;28;20491;-72
2022/03/21 02:20:40;;;;;;;66.30;39.97;;;-0.60;83.30;;;;;;4972560;28;20379;-73
2022/03/21 02:23:41;;;;;;;57.15;35.25;;;-0.50;83.50;;;;;;4971226;28;20059;-73
2022/03/21 02:26:12;;;;;;;57.97;35.00;;;-0.60;83.40;;;;;;4931942;29;20031;-68
2022/03/21 02:28:41;;;;;;;53.58;32.83;;;-0.70;83.70;;;;;;4930991;29;20156;-72
2022/03/21 02:31:20;;;;;;;;;;;;;;;;;;;;;
2022/03/21 02:34:00;;;;;;;53.40;33.03;;;-0.60;84.30;;;;;;4931577;29;20099;-73
2022/03/21 02:36:58;;;;;;;53.83;33.97;;;-0.60;84.80;;;;;;4931005;29;20043;-73
2022/03/21 02:39:52;;;;;;;49.35;32.78;;;-0.60;84.50;;;;;;4915743;29;20036;-72
2022/03/21 02:42:18;;;;;;;59.25;32.40;;;-0.60;84.70;;;;;;4914839;29;20538;-74
2022/03/21 02:44:44;;;;;;;50.30;31.88;;;-0.70;85.30;;;;;;4931322;29;20118;-73
2022/03/21 02:47:10;;;;;;;52.13;32.33;;;-0.70;85.90;;;;;;4931597;29;20043;-76
2022/03/21 02:49:37;;;;;;;56.53;33.42;;;-0.70;86.30;;;;;;4931610;29;20040;-72
2022/03/21 02:52:05;;;;;;;58.75;34.50;;;-0.80;87.00;;;;;;4931863;29;20044;-72
2022/03/21 02:54:32;;;;;;;55.65;32.60;;;-0.80;87.60;;;;;;4931666;28;20032;-71
2022/03/21 02:56:59;;;;;;;54.40;32.67;;;-0.80;87.80;;;;;;4931189;29;20067;-73
2022/03/21 02:59:26;;;;;;;52.13;31.83;;;-0.80;88.40;;;;;;4931610;29;20039;-72
2022/03/21 03:02:02;;;;;;;49.10;32.13;;;-0.80;88.60;;;;;;4954217;28;20065;-71
2022/03/21 03:04:36;;;;;;;55.53;33.55;;;-0.90;89.30;;;;;;4972536;28;20058;-73
2022/03/21 03:07:15;;;;;;;53.47;33.28;;;-1.00;90.30;;;;;;4971944;28;20035;-72
2022/03/21 03:09:43;;;;;;;52.92;32.60;;;-0.90;90.80;;;;;;4954502;28;20098;-73
2022/03/21 03:12:21;;;;;;;49.90;32.53;;;-1.00;91.10;;;;;;4972312;28;20031;-73
2022/03/21 03:14:53;;;;;;;53.58;33.17;;;-1.10;91.70;;;;;;4954981;28;20101;-72
2022/03/21 03:17:32;;;;;;;54.60;33.63;;;-1.10;92.30;;;;;;4958290;28;20486;-73
2022/03/21 03:20:01;;;;;;;54.00;32.05;;;-1.10;92.70;;;;;;4945359;29;20035;-71
2022/03/21 03:22:29;;;;;;;54.15;31.15;;;-1.10;93.40;;;;;;4952466;29;20059;-73
2022/03/21 03:24:56;;;;;;;50.78;30.98;;;-1.20;94.30;;;;;;4952644;29;20082;-72
2022/03/21 03:27:22;;;;;;;55.47;31.38;;;-1.20;95.10;;;;;;4952755;29;20031;-73
2022/03/21 03:29:56;;;;;;;52.45;30.60;;;-1.30;96.10;;;;;;4951210;29;20086;-73
2022/03/21 03:32:28;;;;;;;53.35;32.03;;;-1.30;96.70;;;;;;4954356;28;20074;-73
2022/03/21 03:34:55;;;;;;;56.90;31.52;;;-1.30;97.80;;;;;;4956379;29;20058;-67
2022/03/21 03:37:23;;;;;;;56.13;33.33;;;-1.40;98.70;;;;;;4956110;29;20086;-69
2022/03/21 03:39:54;;;;;;;58.38;33.03;;;-1.30;99.20;;;;;;4956820;29;20079;-71
2022/03/21 03:42:31;;;;;;;52.65;30.60;;;-1.30;99.60;;;;;;4954480;29;20089;-72
2022/03/21 03:44:57;;;;;;;50.88;31.45;;;-1.30;99.90;;;;;;4955335;29;20178;-72
2022/03/21 03:47:45;;;;;;;53.15;31.92;;;-1.30;99.90;;;;;;4956382;29;20035;-72
2022/03/21 03:50:54;;;;;;;53.40;33.15;;;-1.30;99.90;;;;;;4955046;29;20042;-72
2022/03/21 03:53:25;;;;;;;59.38;34.92;;;-1.50;99.50;;;;;;4965155;29;20452;-72
2022/03/21 03:55:54;;;;;;;64.93;40.10;;;-1.70;99.90;;;;;;4945048;28;20026;-72
2022/03/21 03:58:20;;;;;;;57.35;35.80;;;-1.50;99.90;;;;;;4976678;28;20117;-71
2022/03/21 04:00:46;;;;;;;73.35;37.80;;;-1.40;99.90;;;;;;4975149;28;20105;-72
2022/03/21 04:06:06;;;;;;;58.08;32.05;;;-1.20;99.90;;;;;;4974954;28;20038;-72
2022/03/21 04:08:34;;;;;;;49.47;32.25;;;-1.30;99.90;;;;;;4957657;28;20035;-72
2022/03/21 04:11:00;;;;;;;57.00;33.72;;;-1.20;99.90;;;;;;4974887;28;20119;-72
2022/03/21 04:13:25;;;;;;;55.83;34.13;;;-1.30;99.90;;;;;;4975042;28;20034;-72
2022/03/21 04:16:09;;;;;;;;;;;;;;;;;;;;;
2022/03/21 04:18:38;;;;;;;126.18;66.32;;;-1.30;99.90;;;;;;4954163;29;20133;-72
2022/03/21 04:21:04;;;;;;;218.00;104.20;;;-1.30;99.90;;;;;;4955351;29;20110;-73
2022/03/21 04:23:39;;;;;;;106.25;61.95;;;-1.40;99.90;;;;;;4972619;28;20109;-72
2022/03/21 04:26:12;;;;;;;92.38;57.25;;;-1.40;99.90;;;;;;4976543;28;20380;-70
2022/03/21 04:28:38;;;;;;;113.07;63.33;;;-1.30;99.90;;;;;;4974860;28;20201;-72
2022/03/21 04:31:04;;;;;;;74.65;42.13;;;-1.30;99.90;;;;;;4973958;28;20070;-71
2022/03/21 04:33:30;;;;;;;76.28;43.70;;;-1.30;99.90;;;;;;4955577;28;20023;-71
2022/03/21 04:35:56;;;;;;;111.97;63.20;;;-1.40;99.90;;;;;;4974691;28;20023;-71
2022/03/21 04:38:22;;;;;;;240.82;116.70;;;-1.40;99.90;;;;;;4974806;28;20114;-72
2022/03/21 04:40:50;;;;;;;163.73;82.60;;;-1.40;99.90;;;;;;4974110;28;20797;-71
2022/03/21 04:43:18;;;;;;;127.03;63.92;;;-1.50;99.90;;;;;;4974876;28;20031;-72
2022/03/21 04:45:47;;;;;;;108.32;57.67;;;-1.40;99.90;;;;;;4979799;28;20425;-72
2022/03/21 04:48:14;;;;;;;88.00;51.78;;;-1.40;99.90;;;;;;4974339;28;20544;-73
2022/03/21 04:50:40;;;;;;;89.88;51.83;;;-1.50;99.90;;;;;;4974455;28;20043;-72
2022/03/21 04:53:08;;;;;;;91.30;55.55;;;-1.50;99.90;;;;;;4974571;28;20070;-72
2022/03/21 04:55:37;;;;;;;145.18;85.65;;;-1.50;99.90;;;;;;4974211;28;20019;-72
2022/03/21 04:58:07;;;;;;;118.25;67.90;;;-1.50;99.90;;;;;;4972437;28;20035;-72
2022/03/21 05:00:34;;;;;;;120.38;66.72;;;-1.40;99.90;;;;;;4974095;28;20034;-71
2022/03/21 05:03:07;;;;;;;127.70;71.10;;;-1.40;99.90;;;;;;4973368;28;20046;-72
2022/03/21 05:05:36;;;;;;;;;;;-1.00;99.90;;;;;;4972762;28;20117;-71
2022/03/21 05:08:03;;;;;;;76.13;46.97;;;-0.20;99.90;;;;;;4973468;28;19918;-71
2022/03/21 05:10:30;;;;;;;91.47;51.00;;;0.40;98.70;;;;;;4973140;28;20061;-70
2022/03/21 05:12:57;;;;;;;75.80;44.40;;;1.00;95.00;;;;;;4973313;28;20026;-71
2022/03/21 05:15:26;;;;;;;81.45;46.75;;;1.40;92.20;;;;;;4972222;28;20058;-71
2022/03/21 05:17:52;;;;;;;81.25;48.95;;;2.20;90.90;;;;;;4973344;28;20113;-72
2022/03/21 05:20:19;;;;;;;83.90;50.28;;;2.50;87.10;;;;;;4955375;28;20272;-72
2022/03/21 05:31:10;;;;;;;137.25;74.65;;;4.70;76.10;;;;;;4952035;28;20675;-73
2022/03/21 05:36:25;;;;;;;94.97;57.20;;;5.10;72.30;;;;;;4953066;28;20027;-72
2022/03/21 05:39:03;;;;;;;211.55;101.93;;;5.70;71.90;;;;;;4954054;29;20442;-73
2022/03/21 05:41:32;;;;;;;82.18;52.33;;;6.10;71.30;;;;;;4947704;28;20066;-72
2022/03/21 05:43:58;;;;;;;73.93;49.00;;;6.30;69.70;;;;;;4952685;28;20470;-72
2022/03/21 05:46:24;;;;;;;77.05;47.70;;;6.50;69.60;;;;;;4953311;28;20027;-73
2022/03/21 05:48:58;;;;;;;66.07;39.83;;;6.60;68.80;;;;;;4953909;29;20035;-72
2022/03/21 05:51:30;;;;;;;68.25;44.22;;;6.90;68.20;;;;;;4962558;28;20393;-73
2022/03/21 05:54:10;;;;;;;64.57;37.30;;;6.90;67.90;;;;;;4952161;28;20631;-70
2022/03/21 05:56:37;;;;;;;65.28;41.03;;;6.80;68.10;;;;;;4951657;28;20031;-68
2022/03/21 06:01:49;;;;;;;75.07;47.20;;;4.70;71.50;;;;;;4951841;28;20478;-69
2022/03/21 06:04:19;;;;;;;57.70;36.20;;;4.00;73.40;;;;;;4952132;28;20078;-74
2022/03/21 06:06:45;;;;;;;47.25;31.80;;;3.50;74.10;;;;;;4950530;28;20078;-74
2022/03/21 06:09:12;;;;;;;54.53;33.13;;;3.50;75.80;;;;;;4952292;28;20023;-70
2022/03/21 06:11:39;;;;;;;45.38;27.95;;;3.20;76.40;;;;;;4955985;28;20031;-72
2022/03/21 06:14:19;;;;;;;47.65;30.33;;;2.80;76.80;;;;;;4951897;28;20024;-72
2022/03/21 06:16:46;;;;;;;48.22;31.05;;;2.70;78.60;;;;;;4961175;28;20101;-74
2022/03/21 06:19:14;;;;;;;67.95;40.60;;;2.90;79.80;;;;;;4972456;28;20461;-74
2022/03/21 06:21:51;;;;;;;51.47;33.13;;;2.90;80.30;;;;;;4971221;28;20043;-74
2022/03/21 06:24:21;;;;;;;53.78;32.97;;;2.80;79.90;;;;;;4972580;28;20030;-71
2022/03/21 06:26:46;;;;;;;50.53;31.25;;;2.70;80.00;;;;;;4972475;28;20031;-72
2022/03/21 06:29:12;;;;;;;51.63;31.85;;;3.00;81.00;;;;;;4971879;28;20084;-72
2022/03/21 06:31:53;;;;;;;45.53;29.55;;;3.10;81.90;;;;;;4971908;28;20077;-73
2022/03/21 06:34:25;;;;;;;45.97;26.35;;;2.90;80.40;;;;;;4959304;28;20070;-73
2022/03/21 06:37:12;;;;;;;42.17;25.75;;;3.00;81.80;;;;;;4954193;28;20027;-73
2022/03/21 06:39:38;;;;;;;37.55;23.20;;;3.20;81.50;;;;;;4944359;28;20109;-73
2022/03/21 06:42:04;;;;;;;36.13;22.80;;;3.00;81.60;;;;;;4972110;28;20458;-70
2022/03/21 06:44:30;;;;;;;40.50;24.50;;;3.00;81.60;;;;;;4972572;28;20622;-72
2022/03/21 06:46:58;;;;;;;39.22;25.10;;;3.30;82.50;;;;;;4971969;28;20047;-74
2022/03/21 06:49:47;;;;;;;38.75;23.25;;;3.60;82.10;;;;;;4972304;28;20027;-73
2022/03/21 06:52:18;;;;;;;41.53;24.00;;;3.70;81.10;;;;;;4954692;28;20053;-73
2022/03/21 06:54:52;;;;;;;36.05;23.38;;;3.90;81.60;;;;;;4975410;28;20031;-75
2022/03/21 06:57:18;;;;;;;39.08;24.48;;;4.10;80.00;;;;;;4970722;28;20109;-71
2022/03/21 06:59:46;;;;;;;36.78;22.58;;;4.30;80.20;;;;;;4953718;28;20478;-72
2022/03/21 07:02:12;;;;;;;38.67;24.15;;;4.40;78.80;;;;;;4966055;28;20023;-72
2022/03/21 07:04:46;;;;;;;37.85;22.05;;;4.40;78.40;;;;;;4972009;28;20023;-67
2022/03/21 07:07:11;;;;;;;;;;;4.60;77.90;;;;;;4972597;28;20035;-70
2022/03/21 07:09:43;;;;;;;37.75;22.85;;;4.90;77.90;;;;;;4975797;28;19957;-73
2022/03/21 07:12:09;;;;;;;38.15;23.17;;;5.00;76.00;;;;;;4949525;28;20059;-70
2022/03/21 07:14:35;;;;;;;35.60;23.00;;;5.30;76.90;;;;;;4968204;28;20038;-73
2022/03/21 07:17:01;;;;;;;41.15;23.17;;;5.60;76.80;;;;;;4974360;28;20027;-74
2022/03/21 07:19:27;;;;;;;38.78;23.35;;;5.50;77.30;;;;;;4974606;28;20042;-73
2022/03/21 07:21:53;;;;;;;40.20;24.23;;;5.50;74.30;;;;;;4973709;28;20046;-72
2022/03/21 07:24:26;;;;;;;38.85;23.13;;;5.80;74.60;;;;;;4975206;28;20039;-72
2022/03/21 07:26:52;;;;;;;38.05;22.98;;;6.10;74.70;;;;;;4950320;28;20129;-73
2022/03/21 07:29:18;;;;;;;36.38;21.10;;;6.30;71.20;;;;;;4974422;28;20517;-73
2022/03/21 07:31:44;;;;;;;37.70;23.13;;;6.20;71.80;;;;;;4974848;28;20026;-72
2022/03/21 07:34:09;;;;;;;45.90;21.90;;;6.40;71.30;;;;;;4974753;28;20023;-74
2022/03/21 07:37:01;;;;;;;38.45;21.65;;;6.60;71.50;;;;;;4974806;28;20027;-73
2022/03/21 07:39:44;;;;;;;34.30;21.00;;;6.80;69.90;;;;;;4965994;28;20043;-75
2022/03/21 07:42:15;;;;;;;30.92;19.35;;;6.70;69.20;;;;;;4975900;28;20099;-73
2022/03/21 07:47:26;;;;;;;31.83;19.00;;;6.80;68.10;;;;;;4972912;28;20062;-72
2022/03/21 07:49:55;;;;;;;28.38;18.48;;;7.10;67.70;;;;;;4974962;28;20062;-73
2022/03/21 07:52:22;;;;;;;31.95;18.48;;;7.40;69.60;;;;;;4974700;28;20050;-76
2022/03/21 07:54:55;;;;;;;30.30;17.88;;;7.50;68.20;;;;;;4975104;28;20103;-72
2022/03/21 07:57:31;;;;;;;27.13;17.13;;;7.70;66.80;;;;;;4974674;28;20027;-74
2022/03/21 07:59:57;;;;;;;28.48;17.27;;;7.80;65.70;;;;;;4956697;28;20039;-75
2022/03/21 08:02:25;;;;;;;36.38;17.50;;;7.90;65.30;;;;;;4975881;28;20034;-73
2022/03/21 08:04:56;;;;;;;29.75;18.35;;;7.80;64.80;;;;;;4956817;28;20026;-73
2022/03/21 08:07:28;;;;;;;26.98;16.33;;;8.10;66.10;;;;;;4974045;28;20050;-74
2022/03/21 08:09:54;;;;;;;27.48;16.27;;;8.20;65.00;;;;;;4973466;28;20555;-73
2022/03/21 08:15:12;;;;;;;27.33;16.65;;;8.60;64.50;;;;;;4955378;28;20039;-74
2022/03/21 08:17:56;;;;;;;33.40;15.52;;;8.80;64.60;;;;;;4973805;28;20031;-73
2022/03/21 08:20:39;;;;;;;27.35;15.70;;;8.90;63.90;;;;;;4964102;28;20070;-73
2022/03/21 08:23:08;;;;;;;24.40;15.07;;;8.90;60.70;;;;;;4963215;28;20047;-73
2022/03/21 08:25:36;;;;;;;30.83;15.73;;;9.00;63.50;;;;;;4973714;28;20109;-74
2022/03/21 08:28:02;;;;;;;28.92;15.80;;;8.90;61.00;;;;;;4974178;28;20097;-74
2022/03/21 08:30:39;;;;;;;28.58;16.55;;;9.00;61.60;;;;;;4973741;28;20023;-75
2022/03/21 08:33:10;;;;;;;25.95;14.85;;;9.20;64.60;;;;;;4955035;28;20039;-74
2022/03/21 08:35:38;;;;;;;28.40;15.05;;;9.40;63.20;;;;;;4973425;28;20469;-73
2022/03/21 08:38:12;;;;;;;26.98;16.20;;;9.50;59.70;;;;;;4973719;28;20077;-74
2022/03/21 08:40:38;;;;;;;26.30;15.30;;;9.70;60.50;;;;;;4955567;28;20035;-75
2022/03/21 08:43:05;;;;;;;24.33;13.75;;;9.50;58.50;;;;;;4978341;28;20037;-74
2022/03/21 08:45:31;;;;;;;20.50;13.48;;;9.20;57.90;;;;;;4973641;28;20034;-73
2022/03/21 08:47:57;;;;;;;20.42;11.45;;;9.40;61.10;;;;;;4973067;28;20385;-75
2022/03/21 08:50:26;;;;;;;21.15;10.40;;;9.40;55.50;;;;;;4972629;28;20031;-73
2022/03/21 08:52:53;;;;;;;20.20;10.57;;;9.20;54.50;;;;;;4972120;28;20497;-75
2022/03/21 08:55:19;;;;;;;18.05;10.85;;;9.30;56.30;;;;;;4954227;28;20070;-75
2022/03/21 08:57:45;;;;;;;21.38;11.98;;;9.40;56.40;;;;;;4973329;28;20058;-75
2022/03/21 09:00:13;;;;;;;20.30;12.50;;;9.80;60.30;;;;;;4956154;28;20385;-75
2022/03/21 09:02:41;;;;;;;19.88;11.90;;;9.90;58.40;;;;;;4972388;28;20610;-76
2022/03/21 09:05:12;;;;;;;23.10;12.15;;;9.70;57.60;;;;;;4971253;28;20426;-73
2022/03/21 09:07:40;;;;;;;21.95;12.18;;;9.70;55.50;;;;;;4972839;28;20511;-74
2022/03/21 09:10:07;;;;;;;22.45;12.95;;;9.40;55.20;;;;;;4972407;28;20042;-74
2022/03/21 09:12:33;;;;;;;20.52;12.85;;;9.60;57.90;;;;;;4971726;28;20030;-73
2022/03/21 09:14:59;;;;;;;21.98;12.55;;;9.90;57.70;;;;;;4973412;28;20070;-75
2022/03/21 09:17:31;;;;;;;22.55;13.82;;;9.70;55.50;;;;;;4957318;28;20034;-76
2022/03/21 09:19:57;;;;;;;25.40;14.50;;;9.90;57.10;;;;;;4980423;28;20087;-76
2022/03/21 09:22:26;;;;;;;22.52;12.13;;;9.70;54.60;;;;;;4970837;28;20093;-74
2022/03/21 09:24:52;;;;;;;25.83;14.45;;;9.80;55.60;;;;;;4972955;28;20503;-73
2022/03/21 09:27:20;;;;;;;22.77;13.00;;;9.90;56.60;;;;;;4974025;28;20477;-74
2022/03/21 09:29:46;;;;;;;18.92;11.95;;;10.10;55.70;;;;;;4971649;28;20045;-74
2022/03/21 09:32:19;;;;;;;25.42;14.82;;;10.00;53.40;;;;;;4972526;28;20484;-74
2022/03/21 09:34:45;;;;;;;22.50;12.30;;;10.10;54.60;;;;;;4971917;28;20030;-74
2022/03/21 09:37:11;;;;;;;22.13;11.30;;;10.00;52.50;;;;;;4972663;28;20433;-74
2022/03/21 09:39:38;;;;;;;21.58;12.35;;;9.90;53.20;;;;;;4952637;29;20027;-74
2022/03/21 09:42:09;;;;;;;22.20;12.15;;;10.00;54.20;;;;;;4966525;28;20125;-74
2022/03/21 09:44:35;;;;;;;24.05;12.80;;;9.90;55.50;;;;;;4972895;28;20027;-73
2022/03/21 09:48:08;;;;;;;20.70;12.70;;;10.10;58.00;;;;;;4972584;28;20125;-74
2022/03/21 09:49:51;;;;;;;21.15;11.27;;;10.20;53.90;;;;;;4972900;28;20106;-75
2022/03/21 09:52:18;;;;;;;23.40;12.93;;;10.20;56.10;;;;;;4972382;28;20023;-75
2022/03/21 09:54:43;;;;;;;19.77;11.30;;;10.60;53.70;;;;;;4972820;28;20030;-72
2022/03/21 09:57:09;;;;;;;21.33;12.93;;;10.60;53.30;;;;;;4972461;28;20027;-75
2022/03/21 09:59:35;;;;;;;20.15;12.13;;;10.70;53.00;;;;;;4971930;28;20058;-74
2022/03/21 10:02:21;;;;;;;20.63;12.27;;;10.70;54.70;;;;;;4956292;28;20162;-73
2022/03/21 10:04:47;;;;;;;17.83;10.45;;;10.90;53.50;;;;;;4955699;28;20453;-73
2022/03/21 10:07:13;;;;;;;22.17;11.32;;;11.00;50.50;;;;;;4971538;28;20038;-73
2022/03/21 10:09:39;;;;;;;20.90;11.13;;;10.70;50.10;;;;;;4973082;28;20027;-73
2022/03/21 10:12:09;;;;;;;21.17;11.23;;;10.80;51.60;;;;;;4972620;28;20287;-73
2022/03/21 10:14:39;;;;;;;20.70;11.05;;;10.60;49.90;;;;;;4972485;28;20027;-73
2022/03/21 10:17:07;;;;;;;19.90;11.10;;;10.80;49.10;;;;;;4972159;28;20031;-75
2022/03/21 10:19:52;;;;;;;17.83;10.18;;;10.70;49.50;;;;;;4972618;28;20035;-75
2022/03/21 10:22:41;;;;;;;17.50;9.90;;;10.70;47.90;;;;;;4972398;28;20074;-76
2022/03/21 10:25:09;;;;;;;19.35;9.80;;;10.80;47.50;;;;;;4954369;28;20042;-76
2022/03/21 10:27:37;;;;;;;17.08;8.75;;;10.60;47.10;;;;;;4972374;28;20042;-73
2022/03/21 10:30:07;;;;;;;19.25;10.40;;;11.00;46.80;;;;;;4972316;28;20444;-74
2022/03/21 10:32:46;;;;;;;17.50;9.40;;;11.20;47.40;;;;;;4970775;28;20101;-73
2022/03/21 10:35:18;;;;;;;16.48;9.43;;;11.20;47.70;;;;;;4982062;28;20115;-74
2022/03/21 10:37:51;;;;;;;28.23;11.23;;;11.30;47.40;;;;;;4957968;28;20101;-74
2022/03/21 10:40:23;;;;;;;20.45;10.70;;;11.40;49.60;;;;;;4973118;28;20401;-73
2022/03/21 10:42:55;;;;;;;21.80;11.57;;;11.60;49.50;;;;;;4972638;28;20031;-74
2022/03/21 10:45:23;;;;;;;21.02;12.35;;;11.80;51.90;;;;;;4975610;28;20026;-73
2022/03/21 10:47:51;;;;;;;22.52;12.18;;;11.80;50.10;;;;;;4974888;28;20453;-74
2022/03/21 10:50:34;;;;;;;17.38;10.80;;;11.60;49.60;;;;;;4975013;28;20066;-75
2022/03/21 10:53:06;;;;;;;23.77;12.77;;;11.20;46.90;;;;;;4975061;28;20030;-75
2022/03/21 10:55:32;;;;;;;21.70;12.90;;;11.20;48.90;;;;;;4974101;28;20054;-74
2022/03/21 10:57:58;;;;;;;21.42;12.68;;;11.30;49.10;;;;;;4974567;28;20521;-73
2022/03/21 11:00:32;;;;;;;19.80;11.68;;;11.10;48.60;;;;;;4974926;28;20039;-73
2022/03/21 11:03:09;;;;;;;20.23;11.38;;;11.20;48.60;;;;;;4972716;28;20027;-72
2022/03/21 11:05:37;;;;;;;20.65;11.32;;;10.90;48.40;;;;;;4969642;28;20701;-71
2022/03/21 11:08:05;;;;;;;20.10;11.18;;;11.10;46.40;;;;;;4953188;28;20047;-66
2022/03/21 11:10:32;;;;;;;23.08;12.25;;;11.40;50.50;;;;;;4974676;28;20022;-72
2022/03/21 11:13:01;;;;;;;24.23;13.00;;;11.50;49.80;;;;;;4975226;28;20473;-73
2022/03/21 11:15:35;;;;;;;18.15;11.20;;;11.50;48.40;;;;;;4974886;28;20436;-73
2022/03/21 11:18:01;;;;;;;18.10;10.05;;;11.30;49.20;;;;;;4974756;28;20061;-73
2022/03/21 11:20:30;;;;;;;24.77;11.30;;;11.20;47.40;;;;;;4974229;28;20078;-74
2022/03/21 11:23:06;;;;;;;20.30;10.80;;;11.30;47.80;;;;;;4969541;28;20051;-72
2022/03/21 11:25:45;;;;;;;17.90;11.00;;;11.40;47.50;;;;;;4973237;28;20035;-73
2022/03/21 11:29:16;;;;;;;21.55;10.15;;;11.50;47.60;;;;;;4938073;29;20058;-70
2022/03/21 11:31:58;;;;;;;15.88;9.02;;;11.20;46.50;;;;;;4859113;29;20480;-72
2022/03/21 11:34:43;;;;;;;20.80;10.30;;;11.10;46.40;;;;;;4859421;29;20038;-71
2022/03/21 11:37:30;;;;;;;14.55;7.93;;;11.10;47.10;;;;;;4861539;29;20034;-72
2022/03/21 11:40:36;;;;;;;20.27;10.63;;;11.20;45.80;;;;;;4876720;29;20083;-73
2022/03/21 11:43:17;;;;;;;17.92;9.93;;;11.20;46.00;;;;;;4876238;29;20033;-71
2022/03/21 11:45:55;;;;;;;18.23;9.65;;;11.20;47.30;;;;;;4884855;29;20127;-73
2022/03/21 11:48:24;;;;;;;22.67;10.90;;;11.50;49.00;;;;;;4865510;29;20044;-73
2022/03/21 11:50:56;;;;;;;17.45;9.07;;;11.70;48.90;;;;;;4876613;29;20041;-74
2022/03/21 11:53:31;;;;;;;15.43;8.20;;;11.70;47.90;;;;;;4876672;29;20045;-71
2022/03/21 11:56:11;;;;;;;17.60;8.70;;;11.70;47.50;;;;;;4880651;29;20032;-75
2022/03/21 11:58:37;;;;;;;19.75;8.63;;;11.90;47.70;;;;;;4876948;29;20189;-72
2022/03/21 12:01:28;;;;;;;20.20;10.15;;;11.80;47.20;;;;;;4874339;29;20044;-73
2022/03/21 12:04:29;;;;;;;23.25;9.95;;;11.70;44.70;;;;;;4868627;29;20029;-70
2022/03/21 12:07:13;;;;;;;19.70;8.88;;;11.50;45.80;;;;;;4971274;28;20101;-73
2022/03/21 12:09:40;;;;;;;16.05;9.00;;;11.70;46.00;;;;;;4971019;28;20034;-76
2022/03/21 12:12:09;;;;;;;15.02;7.88;;;11.80;47.60;;;;;;4974587;28;20465;-72
2022/03/21 12:14:40;;;;;;;18.90;9.43;;;11.90;47.10;;;;;;4974383;28;20478;-75
2022/03/21 12:17:12;;;;;;;20.33;9.40;;;11.90;45.10;;;;;;4973430;28;20042;-75
2022/03/21 12:20:01;;;;;;;18.17;9.88;;;12.00;45.90;;;;;;4975043;28;20023;-75
2022/03/21 12:22:36;;;;;;;15.65;9.20;;;12.00;44.10;;;;;;4957178;28;20050;-72
2022/03/21 12:25:22;;;;;;;17.30;9.38;;;12.00;45.20;;;;;;4959400;28;20038;-73
2022/03/21 12:27:52;;;;;;;21.40;8.55;;;12.00;44.40;;;;;;4975136;28;20070;-74
2022/03/21 12:30:20;;;;;;;19.35;9.07;;;11.90;43.40;;;;;;4975083;28;20030;-73
2022/03/21 12:32:48;;;;;;;17.05;9.93;;;11.70;44.40;;;;;;4974229;28;20035;-73
2022/03/21 12:35:32;;;;;;;14.15;8.40;;;11.70;44.40;;;;;;4974413;28;20106;-72
2022/03/21 12:38:01;;;;;;;16.42;8.63;;;11.70;43.90;;;;;;4974307;28;20035;-71
2022/03/21 12:40:27;;;;;;;15.13;8.52;;;11.80;46.00;;;;;;4974472;28;20023;-71
2022/03/21 12:42:57;;;;;;;16.95;9.13;;;11.90;46.10;;;;;;4974058;28;20041;-73
2022/03/21 12:45:24;;;;;;;16.67;8.60;;;12.10;47.70;;;;;;4973864;28;20106;-72
2022/03/21 12:47:50;;;;;;;19.83;9.82;;;12.20;45.50;;;;;;4940875;28;20401;-73
2022/03/21 12:50:25;;;;;;;18.25;9.55;;;12.20;44.50;;;;;;4987906;28;20101;-73
2022/03/21 12:52:57;;;;;;;17.08;8.77;;;12.20;47.00;;;;;;4986557;28;20537;-72
2022/03/21 12:55:25;;;;;;;20.05;9.27;;;12.00;44.60;;;;;;4957650;28;20161;-73
2022/03/21 12:58:06;;;;;;;14.43;8.15;;;11.90;44.30;;;;;;4942523;28;20058;-73
2022/03/21 13:01:00;;;;;;;17.45;8.98;;;11.90;45.70;;;;;;4973840;28;20093;-74
2022/03/21 13:03:34;;;;;;;21.35;11.02;;;12.00;45.60;;;;;;4972772;28;20062;-74
2022/03/21 13:11:38;;;;;;;16.15;9.30;;;12.30;46.70;;;;;;4974139;28;20077;-74
2022/03/21 13:14:14;;;;;;;16.58;9.68;;;12.40;45.70;;;;;;4974106;28;20038;-74
2022/03/21 13:17:01;;;;;;;15.27;8.15;;;12.20;42.40;;;;;;4956270;28;20027;-74
2022/03/21 13:19:29;;;;;;;16.58;9.23;;;12.00;43.00;;;;;;4979072;28;20031;-73
2022/03/21 13:22:07;;;;;;;14.50;8.20;;;12.00;42.50;;;;;;4975004;28;20544;-72
2022/03/21 13:24:47;;;;;;;14.25;7.75;;;12.00;43.40;;;;;;4973597;28;20027;-73
2022/03/21 13:27:15;;;;;;;15.70;8.18;;;11.90;44.20;;;;;;4972859;28;20037;-72
2022/03/21 13:29:52;;;;;;;15.55;8.93;;;11.90;44.70;;;;;;4973299;28;20019;-70
2022/03/21 13:32:28;;;;;;;14.20;7.88;;;12.00;45.90;;;;;;4973464;28;20046;-73
2022/03/21 13:34:59;;;;;;;14.38;7.22;;;12.00;43.80;;;;;;4973927;28;20031;-73
2022/03/21 13:37:25;;;;;;;15.02;7.50;;;11.90;44.10;;;;;;4972738;28;20074;-72